createdAt,value
2022-09-21T00:01:21.709Z,6.20
2022-09-21T00:03:51.868Z,5.70
2022-09-21T00:06:20.409Z,6.07
2022-09-21T00:08:48.381Z,5.05
2022-09-21T00:11:18.202Z,6.68
2022-09-21T00:13:46.891Z,4.45
2022-09-21T00:16:16.319Z,4.65
2022-09-21T00:18:43.702Z,6.40
2022-09-21T00:21:13.345Z,4.70
2022-09-21T00:23:40.689Z,5.55
2022-09-21T00:26:16.455Z,4.28
2022-09-21T00:28:44.564Z,4.03
2022-09-21T00:31:13.700Z,3.97
2022-09-21T00:33:42.064Z,3.85
2022-09-21T00:36:10.973Z,4.13
2022-09-21T00:38:38.199Z,5.05
2022-09-21T00:41:07.009Z,4.55
2022-09-21T00:43:35.799Z,3.75
2022-09-21T00:46:13.105Z,4.45
2022-09-21T00:48:40.913Z,4.45
2022-09-21T00:51:09.121Z,5.60
2022-09-21T00:53:37.661Z,4.50
2022-09-21T00:56:06.452Z,6.45
2022-09-21T00:58:40.503Z,5.13
2022-09-21T01:01:07.445Z,5.80
2022-09-21T01:03:34.428Z,4.97
2022-09-21T01:06:01.203Z,4.43
2022-09-21T01:08:28.989Z,5.53
2022-09-21T01:11:11.119Z,4.75
2022-09-21T01:14:16.678Z,4.57
2022-09-21T01:16:56.992Z,4.22
2022-09-21T01:20:01.344Z,5.80
2022-09-21T01:22:55.307Z,4.90
2022-09-21T01:25:28.169Z,6.53
2022-09-21T01:28:11.395Z,3.50
2022-09-21T01:30:40.057Z,5.05
2022-09-21T01:33:14.869Z,8.25
2022-09-21T01:35:46.748Z,5.32
2022-09-21T01:38:23.215Z,7.50
2022-09-21T01:40:54.897Z,6.63
2022-09-21T01:43:26.327Z,6.78
2022-09-21T01:45:56.842Z,8.82
2022-09-21T01:48:25.650Z,6.97
2022-09-21T01:50:56.337Z,7.82
2022-09-21T01:53:37.896Z,6.28
2022-09-21T01:56:13.354Z,6.75
2022-09-21T01:58:50.223Z,8.50
2022-09-21T02:01:23.581Z,9.18
2022-09-21T02:03:54.756Z,8.32
2022-09-21T02:06:21.555Z,8.98
2022-09-21T02:08:48.491Z,6.88
2022-09-21T02:11:15.161Z,8.57
2022-09-21T02:13:48.068Z,7.43
2022-09-21T02:16:40.105Z,8.60
2022-09-21T02:19:22.419Z,8.05
2022-09-21T02:22:15.728Z,6.60
2022-09-21T02:24:49.019Z,6.53
2022-09-21T02:27:39.699Z,5.60
2022-09-21T02:30:21.916Z,7.38
2022-09-21T02:33:18.633Z,7.30
2022-09-21T02:36:06.007Z,8.07
2022-09-21T02:38:46.303Z,6.38
2022-09-21T02:41:24.381Z,8.90
2022-09-21T02:44:08.955Z,6.43
2022-09-21T02:46:46.018Z,6.70
2022-09-21T02:49:26.339Z,6.55
2022-09-21T02:51:58.305Z,7.57
2022-09-21T02:54:29.455Z,7.82
2022-09-21T02:56:58.183Z,8.18
2022-09-21T02:59:25.908Z,7.60
2022-09-21T03:01:53.241Z,5.75
2022-09-21T03:04:20.147Z,4.82
2022-09-21T03:06:47.201Z,6.40
2022-09-21T03:09:13.891Z,23.33
2022-09-21T03:11:43.107Z,25.95
2022-09-21T03:14:09.951Z,6.90
2022-09-21T03:16:36.779Z,5.45
2022-09-21T03:19:03.519Z,6.20
2022-09-21T03:21:30.417Z,5.18
2022-09-21T03:23:57.089Z,6.45
2022-09-21T03:26:23.862Z,8.57
2022-09-21T03:28:51.051Z,16.83
2022-09-21T03:31:17.861Z,4.65
2022-09-21T03:33:44.575Z,12.20
2022-09-21T03:36:11.724Z,5.38
2022-09-21T03:38:39.033Z,5.70
2022-09-21T03:41:06.317Z,5.63
2022-09-21T03:43:33.240Z,6.80
2022-09-21T03:45:59.992Z,5.63
2022-09-21T03:48:26.741Z,18.45
2022-09-21T03:50:53.470Z,8.93
2022-09-21T03:53:20.080Z,6.25
2022-09-21T03:55:46.839Z,7.55
2022-09-21T03:58:13.740Z,6.95
2022-09-21T04:00:40.484Z,6.10
2022-09-21T04:03:07.199Z,5.57
2022-09-21T04:05:33.901Z,5.78
2022-09-21T04:08:02.413Z,5.70
2022-09-21T04:10:49.141Z,6.43
2022-09-21T04:13:18.719Z,6.85
2022-09-21T04:15:45.387Z,7.82
2022-09-21T04:18:13.487Z,5.88
2022-09-21T04:20:41.478Z,5.22
2022-09-21T04:23:08.523Z,4.55
2022-09-21T04:25:35.575Z,5.78
2022-09-21T04:28:02.531Z,6.15
2022-09-21T04:30:30.599Z,5.28
2022-09-21T04:33:00.174Z,6.68
2022-09-21T04:35:26.860Z,5.78
2022-09-21T04:37:56.401Z,6.53
2022-09-21T04:40:24.587Z,7.05
2022-09-21T04:42:53.395Z,10.80
2022-09-21T04:45:21.161Z,5.93
2022-09-21T04:47:48.193Z,8.27
2022-09-21T04:50:15.245Z,5.13
2022-09-21T04:52:42.714Z,7.53
2022-09-21T04:55:09.503Z,5.63
2022-09-21T04:57:36.239Z,8.20
2022-09-21T05:00:05.704Z,6.50
2022-09-21T05:02:32.416Z,11.50
2022-09-21T05:04:59.158Z,6.57
2022-09-21T05:07:25.899Z,6.25
2022-09-21T05:10:04.672Z,5.13
2022-09-21T05:12:38.578Z,5.68
2022-09-21T05:15:06.939Z,6.90
2022-09-21T05:17:33.623Z,5.95
2022-09-21T05:20:00.337Z,6.07
2022-09-21T05:22:28.087Z,9.20
2022-09-21T05:24:55.732Z,7.05
2022-09-21T05:27:22.424Z,7.03
2022-09-21T05:29:49.435Z,9.30
2022-09-21T05:32:37.291Z,10.80
2022-09-21T05:35:12.870Z,9.40
2022-09-21T05:38:01.040Z,6.70
2022-09-21T05:40:28.156Z,6.30
2022-09-21T05:42:56.096Z,5.30
2022-09-21T05:45:23.289Z,5.35
2022-09-21T05:48:05.493Z,8.18
2022-09-21T05:50:55.963Z,24.10
2022-09-21T05:54:00.310Z,10.80
2022-09-21T05:56:45.221Z,8.23
2022-09-21T05:59:30.211Z,9.57
2022-09-21T06:02:02.485Z,8.15
2022-09-21T06:04:29.697Z,10.20
2022-09-21T06:06:56.403Z,30.83
2022-09-21T06:09:23.232Z,16.42
2022-09-21T06:11:49.973Z,8.45
2022-09-21T06:14:16.676Z,10.38
2022-09-21T06:16:43.645Z,10.02
2022-09-21T06:19:14.016Z,9.88
2022-09-21T06:21:40.778Z,16.08
2022-09-21T06:24:07.761Z,11.55
2022-09-21T06:26:34.911Z,14.18
2022-09-21T06:29:01.684Z,8.25
2022-09-21T06:31:28.592Z,32.42
2022-09-21T06:33:55.574Z,10.38
2022-09-21T06:36:22.550Z,12.57
2022-09-21T06:38:49.383Z,19.13
2022-09-21T06:41:20.980Z,11.52
2022-09-21T06:43:48.420Z,10.63
2022-09-21T06:46:18.419Z,12.05
2022-09-21T06:48:45.155Z,15.68
2022-09-21T06:51:11.871Z,12.52
2022-09-21T06:53:38.528Z,10.52
2022-09-21T06:56:07.459Z,17.92
2022-09-21T06:58:35.457Z,18.17
2022-09-21T07:01:11.192Z,18.60
2022-09-21T07:03:39.574Z,16.30
2022-09-21T07:06:07.838Z,19.15
2022-09-21T07:11:24.180Z,11.02
2022-09-21T07:13:51.465Z,34.58
2022-09-21T07:16:19.985Z,17.13
2022-09-21T07:18:47.355Z,16.17
2022-09-21T07:21:15.019Z,14.23
2022-09-21T07:23:41.853Z,12.02
2022-09-21T07:26:11.807Z,13.25
2022-09-21T07:28:39.654Z,25.23
2022-09-21T07:31:09.153Z,17.10
2022-09-21T07:33:39.236Z,11.52
2022-09-21T07:36:10.344Z,20.58
2022-09-21T07:38:42.894Z,24.13
2022-09-21T07:41:12.865Z,15.10
2022-09-21T07:43:42.625Z,21.42
2022-09-21T07:46:12.520Z,26.23
2022-09-21T07:48:40.383Z,17.15
2022-09-21T07:51:13.176Z,18.02
2022-09-21T07:53:44.927Z,37.50
2022-09-21T07:56:14.053Z,16.65
2022-09-21T07:59:00.374Z,21.13
2022-09-21T08:01:28.185Z,22.55
2022-09-21T08:03:57.207Z,15.18
2022-09-21T08:06:27.096Z,15.38
2022-09-21T08:08:57.793Z,16.45
2022-09-21T08:11:27.603Z,14.02
2022-09-21T08:14:00.399Z,15.63
2022-09-21T08:18:55.473Z,15.18
2022-09-21T08:21:22.607Z,14.25
2022-09-21T08:23:50.098Z,16.38
2022-09-21T08:26:19.913Z,18.33
2022-09-21T08:28:51.188Z,15.65
2022-09-21T08:31:23.130Z,14.10
2022-09-21T08:33:50.429Z,17.45
2022-09-21T08:36:18.297Z,17.75
2022-09-21T08:38:45.431Z,15.98
2022-09-21T08:41:17.425Z,16.88
2022-09-21T08:43:48.016Z,17.50
2022-09-21T08:46:22.274Z,17.90
2022-09-21T08:48:56.820Z,16.10
2022-09-21T08:51:31.948Z,19.20
2022-09-21T08:54:05.413Z,20.23
2022-09-21T08:57:00.550Z,18.55
2022-09-21T08:59:21.221Z,15.43
2022-09-21T09:01:56.046Z,19.20
2022-09-21T09:04:53.902Z,21.00
2022-09-21T09:10:15.721Z,19.52
2022-09-21T09:12:50.127Z,17.35
2022-09-21T09:15:37.008Z,16.83
2022-09-21T09:18:25.578Z,18.30
2022-09-21T09:21:04.232Z,17.33
2022-09-21T09:23:40.260Z,20.20
2022-09-21T09:26:14.922Z,20.55
2022-09-21T09:28:53.175Z,19.73
2022-09-21T09:31:27.931Z,17.85
2022-09-21T09:34:10.985Z,21.77
2022-09-21T09:36:57.807Z,21.17
2022-09-21T09:39:26.810Z,21.83
2022-09-21T09:42:06.642Z,20.30
2022-09-21T09:44:55.062Z,20.38
2022-09-21T09:47:33.881Z,19.88
2022-09-21T09:50:21.854Z,19.38
2022-09-21T09:52:57.840Z,20.50
2022-09-21T09:55:34.589Z,17.27
2022-09-21T09:58:02.510Z,17.30
2022-09-21T10:00:33.183Z,19.10
2022-09-21T10:03:01.053Z,20.80
2022-09-21T10:05:30.870Z,19.67
2022-09-21T10:07:57.923Z,20.85
2022-09-21T10:10:33.679Z,18.67
2022-09-21T10:13:06.643Z,19.65
2022-09-21T10:15:33.778Z,21.25
2022-09-21T10:18:26.248Z,18.95
2022-09-21T10:20:54.362Z,19.75
2022-09-21T10:23:21.199Z,20.23
2022-09-21T10:25:57.992Z,16.92
2022-09-21T10:28:25.781Z,19.45
2022-09-21T10:31:27.143Z,19.50
2022-09-21T10:34:16.260Z,16.33
2022-09-21T10:36:55.041Z,20.40
2022-09-21T10:39:27.174Z,16.05
2022-09-21T10:42:04.766Z,15.23
2022-09-21T10:45:13.049Z,17.27
2022-09-21T10:48:04.709Z,18.52
2022-09-21T10:50:43.802Z,15.80
2022-09-21T10:53:10.760Z,13.60
2022-09-21T10:55:52.752Z,15.88
2022-09-21T10:58:31.430Z,13.63
2022-09-21T11:01:11.866Z,12.80
2022-09-21T11:03:56.050Z,10.30
2022-09-21T11:06:27.515Z,11.43
2022-09-21T11:09:29.830Z,9.48
2022-09-21T11:12:22.012Z,7.35
2022-09-21T11:14:56.737Z,7.50
2022-09-21T11:17:33.271Z,9.65
2022-09-21T11:20:14.328Z,9.50
2022-09-21T11:22:57.607Z,7.75
2022-09-21T11:25:46.918Z,7.75
2022-09-21T11:28:39.536Z,7.93
2022-09-21T11:31:41.328Z,4.68
2022-09-21T11:34:44.461Z,7.47
2022-09-21T11:37:36.099Z,11.10
2022-09-21T11:40:37.453Z,5.65
2022-09-21T11:43:26.996Z,8.38
2022-09-21T11:46:16.979Z,5.90
2022-09-21T11:48:49.452Z,4.55
2022-09-21T11:51:25.258Z,7.13
2022-09-21T11:54:06.472Z,5.82
2022-09-21T11:56:33.199Z,4.07
2022-09-21T11:59:18.524Z,4.75
2022-09-21T12:02:21.910Z,5.90
2022-09-21T12:05:15.438Z,4.50
2022-09-21T12:08:00.204Z,4.22
2022-09-21T12:13:36.109Z,6.25
2022-09-21T12:16:30.435Z,5.70
2022-09-21T12:19:04.618Z,4.72
2022-09-21T12:21:36.731Z,4.53
2022-09-21T12:24:22.171Z,3.60
2022-09-21T12:27:03.011Z,4.15
2022-09-21T12:29:47.732Z,3.00
2022-09-21T12:35:08.122Z,4.15
2022-09-21T12:37:45.006Z,3.08
2022-09-21T12:40:29.162Z,3.28
2022-09-21T12:43:05.382Z,3.90
2022-09-21T12:45:51.215Z,3.40
2022-09-21T12:48:45.527Z,4.40
2022-09-21T12:51:16.066Z,3.85
2022-09-21T12:53:50.780Z,3.83
2022-09-21T12:56:41.633Z,2.40
2022-09-21T12:59:45.739Z,2.42
2022-09-21T13:02:25.822Z,2.60
2022-09-21T13:05:04.922Z,5.18
2022-09-21T13:07:43.596Z,3.28
2022-09-21T13:10:31.980Z,2.80
2022-09-21T13:13:03.354Z,3.05
2022-09-21T13:15:33.049Z,7.53
2022-09-21T13:18:05.751Z,2.83
2022-09-21T13:20:38.220Z,5.63
2022-09-21T13:23:06.003Z,6.93
2022-09-21T13:25:37.919Z,2.08
2022-09-21T13:28:13.737Z,3.70
2022-09-21T13:30:43.545Z,4.38
2022-09-21T13:33:19.756Z,4.05
2022-09-21T13:36:04.551Z,2.53
2022-09-21T13:38:41.029Z,4.80
2022-09-21T13:41:19.735Z,4.85
2022-09-21T13:44:01.131Z,3.45
2022-09-21T13:46:37.315Z,5.60
2022-09-21T13:49:10.581Z,2.03
2022-09-21T13:52:12.866Z,4.47
2022-09-21T13:54:45.676Z,3.60
2022-09-21T13:57:28.220Z,4.78
2022-09-21T14:00:18.949Z,3.83
2022-09-21T14:02:51.654Z,3.88
2022-09-21T14:05:27.259Z,7.43
2022-09-21T14:08:22.581Z,3.40
2022-09-21T14:11:08.437Z,4.28
2022-09-21T14:13:38.935Z,4.85
2022-09-21T14:16:41.805Z,4.20
2022-09-21T14:19:17.670Z,3.30
2022-09-21T14:22:09.659Z,2.90
2022-09-21T14:24:43.080Z,2.97
2022-09-21T14:27:33.162Z,3.42
2022-09-21T14:30:07.370Z,1.80
2022-09-21T14:32:42.714Z,6.05
2022-09-21T14:35:20.219Z,1.83
2022-09-21T14:37:59.975Z,2.25
2022-09-21T14:40:28.928Z,3.83
2022-09-21T14:43:00.295Z,2.47
2022-09-21T14:45:59.094Z,2.47
2022-09-21T14:48:31.610Z,2.28
2022-09-21T14:51:03.211Z,3.05
2022-09-21T14:53:35.504Z,2.78
2022-09-21T14:56:21.896Z,4.68
2022-09-21T14:59:21.178Z,3.03
2022-09-21T15:02:03.593Z,3.00
2022-09-21T15:04:46.210Z,8.23
2022-09-21T15:07:56.971Z,4.28
2022-09-21T15:10:58.834Z,3.35
2022-09-21T15:14:06.232Z,4.10
2022-09-21T15:16:39.813Z,4.13
2022-09-21T15:19:13.965Z,5.68
2022-09-21T15:21:46.446Z,4.00
2022-09-21T15:24:22.298Z,5.50
2022-09-21T15:26:53.836Z,4.97
2022-09-21T15:29:30.548Z,3.47
2022-09-21T15:32:00.352Z,3.78
2022-09-21T15:34:28.938Z,4.28
2022-09-21T15:37:07.302Z,3.25
2022-09-21T15:39:34.714Z,5.03
2022-09-21T15:42:10.554Z,4.18
2022-09-21T15:44:38.666Z,3.20
2022-09-21T15:47:12.547Z,3.25
2022-09-21T15:49:39.951Z,3.80
2022-09-21T15:52:14.702Z,3.22
2022-09-21T15:54:49.086Z,3.97
2022-09-21T15:57:41.757Z,4.30
2022-09-21T16:00:14.931Z,3.05
2022-09-21T16:03:04.224Z,1.75
2022-09-21T16:05:44.363Z,2.53
2022-09-21T16:08:22.643Z,3.15
2022-09-21T16:10:50.299Z,2.33
2022-09-21T16:13:41.954Z,3.80
2022-09-21T16:16:13.786Z,4.18
2022-09-21T16:18:51.729Z,2.25
2022-09-21T16:21:26.306Z,5.57
2022-09-21T16:23:55.879Z,1.58
2022-09-21T16:26:26.344Z,2.63
2022-09-21T16:29:16.290Z,4.05
2022-09-21T16:31:49.055Z,4.05
2022-09-21T16:34:36.924Z,4.43
2022-09-21T16:37:24.723Z,4.07
2022-09-21T16:39:52.969Z,2.97
2022-09-21T16:42:21.425Z,2.80
2022-09-21T16:44:49.995Z,5.30
2022-09-21T16:47:25.432Z,5.57
2022-09-21T16:50:02.567Z,5.07
2022-09-21T16:52:30.358Z,5.22
2022-09-21T16:54:58.571Z,5.03
2022-09-21T16:57:26.131Z,4.35
2022-09-21T16:59:52.969Z,5.05
2022-09-21T17:02:19.760Z,7.53
2022-09-21T17:04:47.896Z,6.13
2022-09-21T17:07:15.306Z,8.27
2022-09-21T17:09:46.099Z,8.10
2022-09-21T17:12:15.326Z,5.95
2022-09-21T17:14:46.657Z,5.82
2022-09-21T17:17:22.872Z,6.40
2022-09-21T17:19:51.972Z,8.10
2022-09-21T17:22:19.327Z,7.22
2022-09-21T17:24:51.294Z,6.68
2022-09-21T17:27:22.620Z,6.40
2022-09-21T17:29:50.429Z,6.55
2022-09-21T17:32:22.553Z,7.20
2022-09-21T17:34:58.942Z,5.78
2022-09-21T17:37:25.785Z,6.68
2022-09-21T17:39:53.703Z,6.82
2022-09-21T17:42:24.622Z,5.95
2022-09-21T17:45:18.639Z,7.28
2022-09-21T17:47:45.708Z,6.95
2022-09-21T17:50:12.370Z,6.90
2022-09-21T17:52:58.972Z,5.90
2022-09-21T17:55:26.220Z,8.32
2022-09-21T17:58:02.312Z,9.82
2022-09-21T18:00:53.622Z,6.32
2022-09-21T18:05:59.510Z,5.10
2022-09-21T18:08:28.328Z,6.72
2022-09-21T18:11:33.246Z,6.70
2022-09-21T18:14:29.059Z,4.50
2022-09-21T18:17:04.650Z,5.47
2022-09-21T18:20:05.390Z,4.88
2022-09-21T18:22:49.890Z,3.90
2022-09-21T18:25:25.875Z,7.68
2022-09-21T18:27:53.602Z,4.97
2022-09-21T18:30:20.308Z,4.63
2022-09-21T18:32:52.488Z,5.25
2022-09-21T18:35:32.729Z,7.95
2022-09-21T18:38:22.105Z,8.38
2022-09-21T18:40:59.248Z,5.38
2022-09-21T18:43:54.048Z,6.53
2022-09-21T18:46:32.570Z,5.88
2022-09-21T18:49:09.097Z,6.80
2022-09-21T18:51:51.022Z,7.70
2022-09-21T18:54:23.683Z,7.03
2022-09-21T18:56:50.597Z,8.07
2022-09-21T18:59:17.727Z,8.13
2022-09-21T19:01:46.992Z,8.48
2022-09-21T19:04:14.976Z,9.88
2022-09-21T19:06:54.287Z,8.40
2022-09-21T19:09:53.974Z,11.50
2022-09-21T19:12:33.669Z,8.15
2022-09-21T19:15:24.253Z,7.85
2022-09-21T19:18:20.018Z,8.85
2022-09-21T19:20:58.990Z,10.52
2022-09-21T19:23:47.254Z,11.27
2022-09-21T19:26:20.856Z,8.30
2022-09-21T19:29:25.015Z,6.93
2022-09-21T19:31:52.006Z,9.32
2022-09-21T19:34:19.604Z,7.95
2022-09-21T19:36:49.787Z,9.13
2022-09-21T19:39:16.835Z,9.43
2022-09-21T19:41:54.532Z,10.68
2022-09-21T19:45:04.645Z,11.43
2022-09-21T19:47:37.455Z,14.48
2022-09-21T19:50:20.981Z,13.48
2022-09-21T19:52:48.357Z,10.88
2022-09-21T19:55:36.224Z,12.57
2022-09-21T19:58:22.388Z,10.75
2022-09-21T20:00:52.974Z,12.52
2022-09-21T20:03:44.745Z,11.55
2022-09-21T20:06:11.728Z,10.85
2022-09-21T20:09:08.681Z,9.68
2022-09-21T20:11:59.617Z,9.88
2022-09-21T20:14:39.748Z,10.85
2022-09-21T20:17:12.679Z,10.57
2022-09-21T20:19:53.142Z,8.27
2022-09-21T20:22:40.928Z,6.93
2022-09-21T20:25:31.046Z,8.63
2022-09-21T20:27:58.288Z,7.95
2022-09-21T20:30:28.348Z,9.52
2022-09-21T20:33:06.776Z,7.38
2022-09-21T20:35:34.341Z,10.15
2022-09-21T20:38:02.803Z,8.63
2022-09-21T20:40:32.761Z,10.82
2022-09-21T20:43:01.135Z,9.60
2022-09-21T20:45:28.973Z,9.07
2022-09-21T20:47:57.199Z,11.50
2022-09-21T20:50:30.387Z,9.52
2022-09-21T20:52:57.182Z,9.38
2022-09-21T20:55:24.306Z,7.03
2022-09-21T20:57:51.103Z,9.77
2022-09-21T21:00:19.354Z,7.47
2022-09-21T21:02:46.070Z,10.32
2022-09-21T21:05:12.877Z,6.40
2022-09-21T21:07:43.474Z,6.10
2022-09-21T21:10:14.119Z,9.30
2022-09-21T21:12:42.027Z,8.45
2022-09-21T21:15:12.520Z,7.13
2022-09-21T21:17:40.308Z,5.57
2022-09-21T21:20:08.732Z,7.47
2022-09-21T21:22:35.772Z,6.57
2022-09-21T21:25:02.552Z,8.55
2022-09-21T21:27:29.298Z,8.63
2022-09-21T21:29:56.537Z,8.73
2022-09-21T21:32:25.852Z,7.90
2022-09-21T21:34:53.984Z,8.30
2022-09-21T21:37:24.902Z,7.00
2022-09-21T21:39:52.920Z,8.68
2022-09-21T21:42:20.714Z,6.90
2022-09-21T21:44:48.108Z,7.18
2022-09-21T21:47:38.307Z,6.90
2022-09-21T21:50:01.588Z,6.53
2022-09-21T21:52:28.303Z,6.40
2022-09-21T21:54:55.128Z,6.38
2022-09-21T21:57:21.779Z,6.38
2022-09-21T21:59:48.451Z,8.52
2022-09-21T22:02:15.451Z,5.13
2022-09-21T22:04:42.242Z,5.00
2022-09-21T22:07:08.962Z,4.88
2022-09-21T22:09:35.783Z,5.22
2022-09-21T22:12:03.793Z,4.63
2022-09-21T22:14:30.516Z,7.07
2022-09-21T22:16:59.220Z,6.03
2022-09-21T22:19:25.995Z,5.70
2022-09-21T22:21:54.330Z,6.38
2022-09-21T22:24:21.856Z,7.15
2022-09-21T22:26:48.768Z,5.68
2022-09-21T22:29:17.319Z,6.20
2022-09-21T22:31:46.793Z,5.45
2022-09-21T22:34:14.765Z,6.10
2022-09-21T22:36:43.628Z,4.85
2022-09-21T22:39:11.652Z,7.47
2022-09-21T22:41:40.980Z,6.93
2022-09-21T22:44:08.458Z,5.80
2022-09-21T22:46:35.270Z,5.80
2022-09-21T22:49:02.091Z,5.97
2022-09-21T22:51:29.806Z,6.32
2022-09-21T22:53:57.143Z,6.00
2022-09-21T22:56:26.061Z,6.82
2022-09-21T22:58:54.774Z,4.97
2022-09-21T23:01:27.906Z,5.72
2022-09-21T23:04:00.711Z,5.88
2022-09-21T23:06:30.133Z,6.70
2022-09-21T23:08:59.075Z,5.65
2022-09-21T23:11:33.532Z,6.22
2022-09-21T23:14:00.804Z,7.25
2022-09-21T23:16:29.316Z,8.05
2022-09-21T23:18:57.576Z,5.50
2022-09-21T23:21:26.452Z,7.95
2022-09-21T23:23:59.977Z,3.72
2022-09-21T23:26:28.358Z,7.85
2022-09-21T23:28:57.505Z,8.10
2022-09-21T23:31:26.756Z,5.70
2022-09-21T23:33:56.237Z,6.28
2022-09-21T23:36:25.252Z,8.10
2022-09-21T23:38:52.200Z,5.20
2022-09-21T23:41:23.994Z,6.97
2022-09-21T23:43:51.631Z,4.97
2022-09-21T23:46:22.401Z,10.07
2022-09-21T23:48:49.543Z,6.35
2022-09-21T23:51:17.209Z,7.38
2022-09-21T23:53:44.659Z,4.95
2022-09-21T23:56:15.224Z,4.55
2022-09-21T23:58:42.139Z,5.70
